Rowena, Texas
Current Conditions -  °F | °C
As of 9:51 AM on Monday 24 Nov 2014 (Local Time) from KSJT Reporting Station
Clear Clear  
Wind Chill: 44°   Ceiling: Unl
Heat Index: 47°   Visibility: 10mi
Dew Point: 32°   Wind: 6mph
Humidity: 56%   Direction: 250°WSW
Pressure: 30.13"   Gusts: NA
Location:  31.65°N, 100.05°W
Report Text: KSJT 241551Z 25005KT 10SM CLR 08/00 A3013 RMK AO2 SLP201 T00830000
Loading
Personal Weather Stations






























Interactive Weather Map New forecast layout! Learn more

10-Day Weather Forecast

Advertisements
Track Severe Weather on mobile